sensor_id;sensor_type;location;lat;lon;timestamp;pressure;altitude;pressure_sealevel;temperature;humidity
64614;BME280;51025;37.772;-122.432;2023-04-27T00:01:26;100824.65;;;21.70;26.07
64614;BME280;51025;37.772;-122.432;2023-04-27T00:03:53;100825.33;;;21.91;25.90
64614;BME280;51025;37.772;-122.432;2023-04-27T00:06:22;100826.96;;;21.67;26.11
64614;BME280;51025;37.772;-122.432;2023-04-27T00:08:56;100824.42;;;22.09;26.05
64614;BME280;51025;37.772;-122.432;2023-04-27T00:11:24;100827.58;;;22.42;26.08
64614;BME280;51025;37.772;-122.432;2023-04-27T00:13:52;100823.18;;;22.18;26.02
64614;BME280;51025;37.772;-122.432;2023-04-27T00:16:20;100821.85;;;22.27;26.03
64614;BME280;51025;37.772;-122.432;2023-04-27T00:18:48;100817.91;;;22.28;25.99
64614;BME280;51025;37.772;-122.432;2023-04-27T00:21:16;100816.15;;;21.98;25.96
64614;BME280;51025;37.772;-122.432;2023-04-27T00:23:44;100820.51;;;21.74;26.11
64614;BME280;51025;37.772;-122.432;2023-04-27T00:26:13;100822.72;;;21.68;26.09
64614;BME280;51025;37.772;-122.432;2023-04-27T00:28:41;100820.87;;;22.19;25.89
64614;BME280;51025;37.772;-122.432;2023-04-27T00:31:09;100815.28;;;21.72;25.89
64614;BME280;51025;37.772;-122.432;2023-04-27T00:33:38;100811.94;;;21.63;25.84
64614;BME280;51025;37.772;-122.432;2023-04-27T00:36:06;100813.60;;;21.84;25.63
64614;BME280;51025;37.772;-122.432;2023-04-27T00:38:35;100815.13;;;22.15;25.54
64614;BME280;51025;37.772;-122.432;2023-04-27T00:41:05;100814.26;;;22.07;25.56
64614;BME280;51025;37.772;-122.432;2023-04-27T00:43:42;100814.98;;;21.80;25.44
64614;BME280;51025;37.772;-122.432;2023-04-27T00:46:12;100812.74;;;21.51;25.57
64614;BME280;51025;37.772;-122.432;2023-04-27T00:48:41;100814.33;;;21.78;25.30
64614;BME280;51025;37.772;-122.432;2023-04-27T00:51:10;100808.91;;;21.82;25.29
64614;BME280;51025;37.772;-122.432;2023-04-27T00:53:39;100808.15;;;22.29;25.15
64614;BME280;51025;37.772;-122.432;2023-04-27T00:56:08;100814.00;;;22.30;25.19
64614;BME280;51025;37.772;-122.432;2023-04-27T00:58:36;100815.82;;;22.00;25.12
64614;BME280;51025;37.772;-122.432;2023-04-27T01:01:05;100812.23;;;22.53;25.30
64614;BME280;51025;37.772;-122.432;2023-04-27T01:03:34;100815.97;;;22.46;25.02
64614;BME280;51025;37.772;-122.432;2023-04-27T01:06:02;100817.65;;;21.71;25.45
64614;BME280;51025;37.772;-122.432;2023-04-27T01:08:29;100819.43;;;22.01;25.19
64614;BME280;51025;37.772;-122.432;2023-04-27T01:10:57;100811.08;;;21.73;25.46
64614;BME280;51025;37.772;-122.432;2023-04-27T01:13:26;100806.31;;;21.68;25.44
64614;BME280;51025;37.772;-122.432;2023-04-27T01:15:54;100806.31;;;21.98;25.34
64614;BME280;51025;37.772;-122.432;2023-04-27T01:18:22;100807.85;;;22.16;25.48
64614;BME280;51025;37.772;-122.432;2023-04-27T01:20:50;100804.11;;;21.16;25.73
64614;BME280;51025;37.772;-122.432;2023-04-27T01:23:19;100802.41;;;20.92;26.09
64614;BME280;51025;37.772;-122.432;2023-04-27T01:25:47;100802.06;;;21.14;25.57
64614;BME280;51025;37.772;-122.432;2023-04-27T01:28:15;100800.67;;;21.51;25.46
64614;BME280;51025;37.772;-122.432;2023-04-27T01:30:43;100806.32;;;20.46;25.97
64614;BME280;51025;37.772;-122.432;2023-04-27T01:33:11;100803.80;;;20.96;25.44
64614;BME280;51025;37.772;-122.432;2023-04-27T01:35:39;100803.30;;;21.10;25.55
64614;BME280;51025;37.772;-122.432;2023-04-27T01:38:07;100803.61;;;20.78;25.59
64614;BME280;51025;37.772;-122.432;2023-04-27T01:40:36;100809.77;;;21.09;25.73
64614;BME280;51025;37.772;-122.432;2023-04-27T01:43:05;100804.89;;;20.73;25.55
64614;BME280;51025;37.772;-122.432;2023-04-27T01:45:33;100801.98;;;21.20;25.78
64614;BME280;51025;37.772;-122.432;2023-04-27T01:48:02;100805.80;;;20.82;25.63
64614;BME280;51025;37.772;-122.432;2023-04-27T01:50:31;100803.45;;;20.04;26.38
64614;BME280;51025;37.772;-122.432;2023-04-27T01:52:59;100797.70;;;20.91;26.32
64614;BME280;51025;37.772;-122.432;2023-04-27T01:55:27;100798.34;;;21.10;26.04
64614;BME280;51025;37.772;-122.432;2023-04-27T01:57:56;100795.36;;;20.63;26.55
64614;BME280;51025;37.772;-122.432;2023-04-27T02:00:24;100799.82;;;20.32;26.77
64614;BME280;51025;37.772;-122.432;2023-04-27T02:02:52;100798.31;;;20.90;26.65
64614;BME280;51025;37.772;-122.432;2023-04-27T02:05:20;100796.55;;;21.21;26.39
64614;BME280;51025;37.772;-122.432;2023-04-27T02:07:48;100796.76;;;20.40;27.05
64614;BME280;51025;37.772;-122.432;2023-04-27T02:10:17;100796.66;;;20.67;26.74
64614;BME280;51025;37.772;-122.432;2023-04-27T02:12:45;100795.96;;;20.27;27.03
64614;BME280;51025;37.772;-122.432;2023-04-27T02:15:13;100796.16;;;20.99;26.42
64614;BME280;51025;37.772;-122.432;2023-04-27T02:17:41;100792.90;;;20.77;26.22
64614;BME280;51025;37.772;-122.432;2023-04-27T02:20:10;100797.06;;;20.93;26.45
64614;BME280;51025;37.772;-122.432;2023-04-27T02:22:41;100793.36;;;20.83;26.57
64614;BME280;51025;37.772;-122.432;2023-04-27T02:25:10;100799.83;;;20.24;27.10
64614;BME280;51025;37.772;-122.432;2023-04-27T02:27:39;100804.23;;;19.90;27.20
64614;BME280;51025;37.772;-122.432;2023-04-27T02:30:09;100805.28;;;20.52;26.99
64614;BME280;51025;37.772;-122.432;2023-04-27T02:32:38;100804.01;;;20.20;27.46
64614;BME280;51025;37.772;-122.432;2023-04-27T02:35:07;100804.68;;;20.33;27.37
64614;BME280;51025;37.772;-122.432;2023-04-27T02:37:36;100804.41;;;19.92;27.88
64614;BME280;51025;37.772;-122.432;2023-04-27T02:40:05;100813.55;;;20.39;27.35
64614;BME280;51025;37.772;-122.432;2023-04-27T02:42:34;100817.18;;;20.39;27.09
64614;BME280;51025;37.772;-122.432;2023-04-27T02:45:02;100816.34;;;19.82;27.56
64614;BME280;51025;37.772;-122.432;2023-04-27T02:47:31;100816.01;;;19.96;27.37
64614;BME280;51025;37.772;-122.432;2023-04-27T02:49:59;100817.76;;;20.58;27.12
64614;BME280;51025;37.772;-122.432;2023-04-27T02:52:28;100816.66;;;20.09;26.83
64614;BME280;51025;37.772;-122.432;2023-04-27T02:54:56;100818.98;;;20.08;27.16
64614;BME280;51025;37.772;-122.432;2023-04-27T02:57:24;100818.81;;;20.37;26.86
64614;BME280;51025;37.772;-122.432;2023-04-27T02:59:52;100823.42;;;19.68;27.40
64614;BME280;51025;37.772;-122.432;2023-04-27T03:02:20;100816.76;;;19.98;27.26
64614;BME280;51025;37.772;-122.432;2023-04-27T03:04:52;100817.63;;;19.84;27.21
64614;BME280;51025;37.772;-122.432;2023-04-27T03:07:25;100818.81;;;19.95;27.08
64614;BME280;51025;37.772;-122.432;2023-04-27T03:09:53;100813.22;;;20.37;26.72
64614;BME280;51025;37.772;-122.432;2023-04-27T03:12:21;100818.02;;;19.99;27.36
64614;BME280;51025;37.772;-122.432;2023-04-27T03:14:49;100821.11;;;19.56;27.38
64614;BME280;51025;37.772;-122.432;2023-04-27T03:17:17;100820.26;;;20.01;27.29
64614;BME280;51025;37.772;-122.432;2023-04-27T03:19:47;100823.45;;;20.34;27.05
64614;BME280;51025;37.772;-122.432;2023-04-27T03:22:15;100824.29;;;21.24;26.40
64614;BME280;51025;37.772;-122.432;2023-04-27T03:24:43;100828.17;;;20.47;27.19
64614;BME280;51025;37.772;-122.432;2023-04-27T03:27:11;100829.39;;;21.85;26.65
64614;BME280;51025;37.772;-122.432;2023-04-27T03:29:39;100832.81;;;21.65;26.82
64614;BME280;51025;37.772;-122.432;2023-04-27T03:32:07;100835.42;;;21.39;27.64
64614;BME280;51025;37.772;-122.432;2023-04-27T03:34:36;100831.85;;;21.14;27.88
64614;BME280;51025;37.772;-122.432;2023-04-27T03:37:05;100839.51;;;20.26;29.60
64614;BME280;51025;37.772;-122.432;2023-04-27T03:39:33;100840.18;;;21.18;28.96
64614;BME280;51025;37.772;-122.432;2023-04-27T03:42:02;100839.27;;;20.17;30.09
64614;BME280;51025;37.772;-122.432;2023-04-27T03:44:30;100841.86;;;21.56;29.68
64614;BME280;51025;37.772;-122.432;2023-04-27T03:46:59;100845.93;;;20.71;30.23
64614;BME280;51025;37.772;-122.432;2023-04-27T03:49:28;100849.67;;;21.10;29.95
64614;BME280;51025;37.772;-122.432;2023-04-27T03:51:56;100854.05;;;21.16;29.89
64614;BME280;51025;37.772;-122.432;2023-04-27T03:54:24;100855.58;;;20.30;30.75
64614;BME280;51025;37.772;-122.432;2023-04-27T03:56:52;100856.07;;;21.67;29.47
64614;BME280;51025;37.772;-122.432;2023-04-27T03:59:22;100863.51;;;21.18;29.87
64614;BME280;51025;37.772;-122.432;2023-04-27T04:01:51;100863.67;;;20.61;30.12
64614;BME280;51025;37.772;-122.432;2023-04-27T04:04:20;100864.65;;;20.90;29.90
64614;BME280;51025;37.772;-122.432;2023-04-27T04:06:48;100865.98;;;20.50;30.01
64614;BME280;51025;37.772;-122.432;2023-04-27T04:09:17;100865.59;;;20.30;29.80
64614;BME280;51025;37.772;-122.432;2023-04-27T04:11:45;100864.23;;;20.78;29.50
64614;BME280;51025;37.772;-122.432;2023-04-27T04:14:13;100866.15;;;21.08;29.32
64614;BME280;51025;37.772;-122.432;2023-04-27T04:16:41;100867.29;;;21.24;29.51
64614;BME280;51025;37.772;-122.432;2023-04-27T04:19:10;100870.04;;;21.18;29.70
64614;BME280;51025;37.772;-122.432;2023-04-27T04:21:38;100872.41;;;20.60;30.08
64614;BME280;51025;37.772;-122.432;2023-04-27T04:24:07;100874.47;;;21.13;29.56
64614;BME280;51025;37.772;-122.432;2023-04-27T04:26:35;100871.07;;;20.18;29.65
64614;BME280;51025;37.772;-122.432;2023-04-27T04:29:04;100867.86;;;20.95;29.48
64614;BME280;51025;37.772;-122.432;2023-04-27T04:31:32;100866.72;;;20.42;29.61
64614;BME280;51025;37.772;-122.432;2023-04-27T04:34:00;100865.23;;;21.30;28.75
64614;BME280;51025;37.772;-122.432;2023-04-27T04:36:30;100863.90;;;20.98;29.15
64614;BME280;51025;37.772;-122.432;2023-04-27T04:38:58;100862.31;;;21.28;28.89
64614;BME280;51025;37.772;-122.432;2023-04-27T04:41:27;100862.57;;;20.65;28.91
64614;BME280;51025;37.772;-122.432;2023-04-27T04:43:55;100858.41;;;21.08;28.73
64614;BME280;51025;37.772;-122.432;2023-04-27T04:46:24;100858.29;;;20.32;29.40
64614;BME280;51025;37.772;-122.432;2023-04-27T04:48:52;100857.43;;;20.59;28.66
64614;BME280;51025;37.772;-122.432;2023-04-27T04:51:21;100859.25;;;20.96;28.69
64614;BME280;51025;37.772;-122.432;2023-04-27T04:53:49;100858.07;;;20.36;29.01
64614;BME280;51025;37.772;-122.432;2023-04-27T04:56:17;100866.84;;;20.82;28.61
64614;BME280;51025;37.772;-122.432;2023-04-27T04:58:45;100865.64;;;20.51;28.67
64614;BME280;51025;37.772;-122.432;2023-04-27T05:01:13;100871.07;;;21.21;28.10
64614;BME280;51025;37.772;-122.432;2023-04-27T05:03:42;100872.38;;;20.62;28.53
64614;BME280;51025;37.772;-122.432;2023-04-27T05:06:11;100874.77;;;20.85;28.29
64614;BME280;51025;37.772;-122.432;2023-04-27T05:08:40;100877.29;;;20.11;28.83
64614;BME280;51025;37.772;-122.432;2023-04-27T05:11:09;100875.49;;;20.45;28.38
64614;BME280;51025;37.772;-122.432;2023-04-27T05:13:37;100879.75;;;20.04;28.68
64614;BME280;51025;37.772;-122.432;2023-04-27T05:16:07;100879.31;;;20.01;28.71
64614;BME280;51025;37.772;-122.432;2023-04-27T05:18:37;100881.84;;;19.97;28.59
64614;BME280;51025;37.772;-122.432;2023-04-27T05:21:11;100883.22;;;19.97;28.58
64614;BME280;51025;37.772;-122.432;2023-04-27T05:23:40;100884.09;;;20.33;28.57
64614;BME280;51025;37.772;-122.432;2023-04-27T05:26:11;100880.92;;;20.51;27.61
64614;BME280;51025;37.772;-122.432;2023-04-27T05:28:40;100888.24;;;20.03;28.29
64614;BME280;51025;37.772;-122.432;2023-04-27T05:31:08;100886.55;;;20.26;28.54
64614;BME280;51025;37.772;-122.432;2023-04-27T05:33:37;100885.94;;;20.07;28.23
64614;BME280;51025;37.772;-122.432;2023-04-27T05:36:06;100881.60;;;19.79;28.34
64614;BME280;51025;37.772;-122.432;2023-04-27T05:38:34;100882.96;;;20.14;28.29
64614;BME280;51025;37.772;-122.432;2023-04-27T05:41:02;100885.26;;;19.70;28.40
64614;BME280;51025;37.772;-122.432;2023-04-27T05:43:30;100884.69;;;20.13;28.29
64614;BME280;51025;37.772;-122.432;2023-04-27T05:45:59;100883.90;;;20.02;27.90
64614;BME280;51025;37.772;-122.432;2023-04-27T05:48:27;100882.40;;;19.93;27.94
64614;BME280;51025;37.772;-122.432;2023-04-27T05:50:59;100883.98;;;19.75;28.09
64614;BME280;51025;37.772;-122.432;2023-04-27T05:53:27;100878.12;;;20.36;27.98
64614;BME280;51025;37.772;-122.432;2023-04-27T05:55:56;100877.08;;;19.86;27.89
64614;BME280;51025;37.772;-122.432;2023-04-27T05:58:25;100874.95;;;19.87;27.96
64614;BME280;51025;37.772;-122.432;2023-04-27T06:00:54;100875.45;;;20.03;28.13
64614;BME280;51025;37.772;-122.432;2023-04-27T06:03:22;100880.54;;;19.52;28.18
64614;BME280;51025;37.772;-122.432;2023-04-27T06:05:54;100877.71;;;19.50;28.13
64614;BME280;51025;37.772;-122.432;2023-04-27T06:08:23;100875.74;;;20.27;27.53
64614;BME280;51025;37.772;-122.432;2023-04-27T06:10:52;100875.80;;;20.45;27.60
64614;BME280;51025;37.772;-122.432;2023-04-27T06:13:21;100876.54;;;19.69;27.94
64614;BME280;51025;37.772;-122.432;2023-04-27T06:15:49;100876.55;;;20.56;27.77
64614;BME280;51025;37.772;-122.432;2023-04-27T06:18:17;100877.83;;;20.03;27.97
64614;BME280;51025;37.772;-122.432;2023-04-27T06:20:45;100879.98;;;19.53;27.96
64614;BME280;51025;37.772;-122.432;2023-04-27T06:23:13;100881.45;;;19.82;28.11
64614;BME280;51025;37.772;-122.432;2023-04-27T06:25:41;100879.49;;;20.71;27.31
64614;BME280;51025;37.772;-122.432;2023-04-27T06:28:09;100880.16;;;19.86;27.49
64614;BME280;51025;37.772;-122.432;2023-04-27T06:30:38;100883.16;;;19.49;27.87
64614;BME280;51025;37.772;-122.432;2023-04-27T06:33:06;100879.54;;;20.76;27.20
64614;BME280;51025;37.772;-122.432;2023-04-27T06:35:34;100879.16;;;20.95;27.01
64614;BME280;51025;37.772;-122.432;2023-04-27T06:38:03;100880.52;;;20.99;26.83
64614;BME280;51025;37.772;-122.432;2023-04-27T06:40:31;100882.92;;;20.44;27.22
64614;BME280;51025;37.772;-122.432;2023-04-27T06:42:59;100890.66;;;19.63;27.51
64614;BME280;51025;37.772;-122.432;2023-04-27T06:45:27;100885.97;;;20.49;26.90
64614;BME280;51025;37.772;-122.432;2023-04-27T06:47:55;100889.36;;;20.37;26.86
64614;BME280;51025;37.772;-122.432;2023-04-27T06:50:24;100887.85;;;20.26;27.19
64614;BME280;51025;37.772;-122.432;2023-04-27T06:52:52;100885.66;;;20.24;27.35
64614;BME280;51025;37.772;-122.432;2023-04-27T06:55:20;100882.98;;;21.19;26.50
64614;BME280;51025;37.772;-122.432;2023-04-27T06:57:48;100885.37;;;20.11;26.95
64614;BME280;51025;37.772;-122.432;2023-04-27T07:00:18;100890.33;;;19.50;27.46
64614;BME280;51025;37.772;-122.432;2023-04-27T07:02:46;100887.99;;;19.87;27.11
64614;BME280;51025;37.772;-122.432;2023-04-27T07:05:15;100889.90;;;20.23;26.74
64614;BME280;51025;37.772;-122.432;2023-04-27T07:07:43;100890.26;;;20.06;27.22
64614;BME280;51025;37.772;-122.432;2023-04-27T07:10:11;100889.97;;;20.03;27.22
64614;BME280;51025;37.772;-122.432;2023-04-27T07:12:40;100889.06;;;20.47;26.94
64614;BME280;51025;37.772;-122.432;2023-04-27T07:15:09;100888.10;;;21.37;26.46
64614;BME280;51025;37.772;-122.432;2023-04-27T07:17:38;100893.94;;;19.49;27.29
64614;BME280;51025;37.772;-122.432;2023-04-27T07:20:07;100885.99;;;21.26;26.18
64614;BME280;51025;37.772;-122.432;2023-04-27T07:22:36;100887.50;;;20.62;26.75
64614;BME280;51025;37.772;-122.432;2023-04-27T07:25:04;100889.51;;;20.14;26.70
64614;BME280;51025;37.772;-122.432;2023-04-27T07:27:32;100893.64;;;20.72;26.65
64614;BME280;51025;37.772;-122.432;2023-04-27T07:30:00;100893.45;;;20.78;26.68
64614;BME280;51025;37.772;-122.432;2023-04-27T07:32:28;100899.13;;;20.67;26.54
64614;BME280;51025;37.772;-122.432;2023-04-27T07:34:57;100902.13;;;19.88;26.85
64614;BME280;51025;37.772;-122.432;2023-04-27T07:37:25;100902.86;;;20.21;26.54
64614;BME280;51025;37.772;-122.432;2023-04-27T07:39:53;100904.85;;;20.47;26.42
64614;BME280;51025;37.772;-122.432;2023-04-27T07:42:21;100908.44;;;20.32;26.71
64614;BME280;51025;37.772;-122.432;2023-04-27T07:44:50;100909.03;;;20.38;26.40
64614;BME280;51025;37.772;-122.432;2023-04-27T07:47:17;100914.11;;;19.37;27.10
64614;BME280;51025;37.772;-122.432;2023-04-27T07:49:46;100918.01;;;20.26;27.00
64614;BME280;51025;37.772;-122.432;2023-04-27T07:52:14;100918.24;;;19.23;27.25
64614;BME280;51025;37.772;-122.432;2023-04-27T07:54:42;100919.11;;;19.93;26.73
64614;BME280;51025;37.772;-122.432;2023-04-27T07:57:10;100919.54;;;19.93;26.92
64614;BME280;51025;37.772;-122.432;2023-04-27T07:59:39;100917.20;;;19.56;27.26
64614;BME280;51025;37.772;-122.432;2023-04-27T08:02:08;100915.73;;;20.26;26.65
64614;BME280;51025;37.772;-122.432;2023-04-27T08:04:36;100912.29;;;19.20;27.14
64614;BME280;51025;37.772;-122.432;2023-04-27T08:07:04;100913.64;;;19.96;26.78
64614;BME280;51025;37.772;-122.432;2023-04-27T08:09:32;100911.83;;;20.57;26.38
64614;BME280;51025;37.772;-122.432;2023-04-27T08:12:00;100914.18;;;20.21;26.73
64614;BME280;51025;37.772;-122.432;2023-04-27T08:14:28;100907.75;;;19.91;26.85
64614;BME280;51025;37.772;-122.432;2023-04-27T08:16:56;100905.25;;;19.46;27.22
64614;BME280;51025;37.772;-122.432;2023-04-27T08:19:25;100903.69;;;20.14;26.93
64614;BME280;51025;37.772;-122.432;2023-04-27T08:21:53;100900.84;;;19.45;27.22
64614;BME280;51025;37.772;-122.432;2023-04-27T08:24:21;100900.53;;;19.88;27.14
64614;BME280;51025;37.772;-122.432;2023-04-27T08:26:49;100902.32;;;19.43;27.28
64614;BME280;51025;37.772;-122.432;2023-04-27T08:29:17;100898.07;;;19.73;26.89
64614;BME280;51025;37.772;-122.432;2023-04-27T08:31:45;100899.07;;;19.83;27.22
64614;BME280;51025;37.772;-122.432;2023-04-27T08:34:13;100897.40;;;19.75;27.27
64614;BME280;51025;37.772;-122.432;2023-04-27T08:36:41;100895.76;;;19.26;27.40
64614;BME280;51025;37.772;-122.432;2023-04-27T08:39:09;100896.42;;;19.26;27.47
64614;BME280;51025;37.772;-122.432;2023-04-27T08:41:41;100898.29;;;19.18;27.56
64614;BME280;51025;37.772;-122.432;2023-04-27T08:44:10;100896.54;;;19.43;27.65
64614;BME280;51025;37.772;-122.432;2023-04-27T08:46:39;100895.59;;;19.25;27.47
64614;BME280;51025;37.772;-122.432;2023-04-27T08:49:08;100896.95;;;19.53;27.53
64614;BME280;51025;37.772;-122.432;2023-04-27T08:51:37;100893.72;;;18.99;27.66
64614;BME280;51025;37.772;-122.432;2023-04-27T08:54:05;100892.78;;;19.38;27.56
64614;BME280;51025;37.772;-122.432;2023-04-27T08:56:33;100890.97;;;19.30;27.65
64614;BME280;51025;37.772;-122.432;2023-04-27T08:59:03;100891.95;;;19.02;27.57
64614;BME280;51025;37.772;-122.432;2023-04-27T09:01:44;100887.91;;;19.71;27.26
64614;BME280;51025;37.772;-122.432;2023-04-27T09:04:12;100883.74;;;19.35;27.52
64614;BME280;51025;37.772;-122.432;2023-04-27T09:06:41;100881.69;;;19.20;27.34
64614;BME280;51025;37.772;-122.432;2023-04-27T09:09:20;100876.20;;;19.56;27.36
64614;BME280;51025;37.772;-122.432;2023-04-27T09:11:48;100874.02;;;19.31;27.46
64614;BME280;51025;37.772;-122.432;2023-04-27T09:14:19;100876.15;;;19.24;27.54
64614;BME280;51025;37.772;-122.432;2023-04-27T09:16:54;100873.87;;;19.43;27.36
64614;BME280;51025;37.772;-122.432;2023-04-27T09:19:25;100872.06;;;19.14;27.55
64614;BME280;51025;37.772;-122.432;2023-04-27T09:22:05;100868.77;;;19.22;27.43
64614;BME280;51025;37.772;-122.432;2023-04-27T09:24:34;100866.57;;;18.68;27.58
64614;BME280;51025;37.772;-122.432;2023-04-27T09:27:03;100860.63;;;19.11;27.49
64614;BME280;51025;37.772;-122.432;2023-04-27T09:29:34;100859.20;;;19.10;27.47
64614;BME280;51025;37.772;-122.432;2023-04-27T09:32:14;100860.34;;;19.10;27.44
64614;BME280;51025;37.772;-122.432;2023-04-27T09:34:42;100860.61;;;19.01;27.49
64614;BME280;51025;37.772;-122.432;2023-04-27T09:37:11;100858.41;;;19.85;26.77
64614;BME280;51025;37.772;-122.432;2023-04-27T09:39:41;100854.10;;;19.12;27.08
64614;BME280;51025;37.772;-122.432;2023-04-27T09:42:11;100851.98;;;18.99;27.41
64614;BME280;51025;37.772;-122.432;2023-04-27T09:44:40;100847.08;;;18.60;27.45
64614;BME280;51025;37.772;-122.432;2023-04-27T09:47:08;100842.62;;;18.91;27.43
64614;BME280;51025;37.772;-122.432;2023-04-27T09:49:37;100839.73;;;18.61;27.40
64614;BME280;51025;37.772;-122.432;2023-04-27T09:52:05;100838.43;;;19.21;27.20
64614;BME280;51025;37.772;-122.432;2023-04-27T09:54:34;100837.65;;;18.49;27.48
64614;BME280;51025;37.772;-122.432;2023-04-27T09:57:15;100831.76;;;18.84;27.45
64614;BME280;51025;37.772;-122.432;2023-04-27T09:59:57;100828.48;;;19.11;27.18
64614;BME280;51025;37.772;-122.432;2023-04-27T10:02:30;100824.13;;;18.85;27.41
64614;BME280;51025;37.772;-122.432;2023-04-27T10:05:22;100821.80;;;19.09;27.26
64614;BME280;51025;37.772;-122.432;2023-04-27T10:07:54;100822.02;;;18.97;27.29
64614;BME280;51025;37.772;-122.432;2023-04-27T10:10:23;100819.99;;;18.98;27.23
64614;BME280;51025;37.772;-122.432;2023-04-27T10:13:01;100820.31;;;18.71;27.46
64614;BME280;51025;37.772;-122.432;2023-04-27T10:15:30;100822.11;;;19.11;27.46
64614;BME280;51025;37.772;-122.432;2023-04-27T10:18:03;100820.80;;;18.67;27.45
64614;BME280;51025;37.772;-122.432;2023-04-27T10:20:34;100821.00;;;18.77;27.32
64614;BME280;51025;37.772;-122.432;2023-04-27T10:23:02;100823.21;;;18.82;27.23
64614;BME280;51025;37.772;-122.432;2023-04-27T10:25:38;100822.88;;;18.88;27.18
64614;BME280;51025;37.772;-122.432;2023-04-27T10:28:07;100818.29;;;19.04;26.98
64614;BME280;51025;37.772;-122.432;2023-04-27T10:30:44;100820.22;;;18.30;27.39
64614;BME280;51025;37.772;-122.432;2023-04-27T10:33:16;100822.27;;;18.31;27.32
64614;BME280;51025;37.772;-122.432;2023-04-27T10:35:54;100823.58;;;18.58;27.44
64614;BME280;51025;37.772;-122.432;2023-04-27T10:38:28;100819.97;;;18.59;27.40
64614;BME280;51025;37.772;-122.432;2023-04-27T10:40:58;100817.41;;;19.47;26.62
64614;BME280;51025;37.772;-122.432;2023-04-27T10:43:29;100817.57;;;18.48;27.41
64614;BME280;51025;37.772;-122.432;2023-04-27T10:46:07;100813.83;;;18.56;27.34
64614;BME280;51025;37.772;-122.432;2023-04-27T10:48:37;100814.13;;;18.67;27.31
64614;BME280;51025;37.772;-122.432;2023-04-27T10:51:06;100814.39;;;18.71;27.21
64614;BME280;51025;37.772;-122.432;2023-04-27T10:53:35;100815.57;;;18.72;27.19
64614;BME280;51025;37.772;-122.432;2023-04-27T10:56:04;100808.62;;;18.47;27.38
64614;BME280;51025;37.772;-122.432;2023-04-27T10:58:32;100807.81;;;18.37;27.43
64614;BME280;51025;37.772;-122.432;2023-04-27T11:01:01;100803.83;;;18.35;27.48
64614;BME280;51025;37.772;-122.432;2023-04-27T11:03:30;100802.93;;;18.38;27.40
64614;BME280;51025;37.772;-122.432;2023-04-27T11:06:00;100802.34;;;18.41;27.34
64614;BME280;51025;37.772;-122.432;2023-04-27T11:08:30;100802.37;;;20.01;26.69
64614;BME280;51025;37.772;-122.432;2023-04-27T11:10:58;100798.34;;;18.43;27.38
64614;BME280;51025;37.772;-122.432;2023-04-27T11:13:26;100805.52;;;18.35;27.40
64614;BME280;51025;37.772;-122.432;2023-04-27T11:15:56;100805.25;;;18.86;27.28
64614;BME280;51025;37.772;-122.432;2023-04-27T11:18:26;100807.43;;;18.22;27.51
64614;BME280;51025;37.772;-122.432;2023-04-27T11:21:06;100810.55;;;18.65;27.10
64614;BME280;51025;37.772;-122.432;2023-04-27T11:23:35;100809.43;;;19.07;26.66
64614;BME280;51025;37.772;-122.432;2023-04-27T11:26:09;100807.59;;;19.51;26.70
64614;BME280;51025;37.772;-122.432;2023-04-27T11:28:38;100812.07;;;19.15;26.69
64614;BME280;51025;37.772;-122.432;2023-04-27T11:31:07;100814.48;;;18.48;27.20
64614;BME280;51025;37.772;-122.432;2023-04-27T11:33:36;100819.95;;;18.23;27.40
64614;BME280;51025;37.772;-122.432;2023-04-27T11:36:15;100817.13;;;18.33;27.26
64614;BME280;51025;37.772;-122.432;2023-04-27T11:38:44;100813.92;;;18.08;27.48
64614;BME280;51025;37.772;-122.432;2023-04-27T11:41:12;100812.48;;;18.38;27.14
64614;BME280;51025;37.772;-122.432;2023-04-27T11:43:42;100811.55;;;18.69;27.30
64614;BME280;51025;37.772;-122.432;2023-04-27T11:46:11;100808.91;;;18.31;27.19
64614;BME280;51025;37.772;-122.432;2023-04-27T11:48:40;100809.53;;;18.09;27.43
64614;BME280;51025;37.772;-122.432;2023-04-27T11:51:10;100807.03;;;18.16;27.27
64614;BME280;51025;37.772;-122.432;2023-04-27T11:53:39;100802.22;;;18.33;27.50
64614;BME280;51025;37.772;-122.432;2023-04-27T11:56:09;100802.84;;;18.08;27.35
64614;BME280;51025;37.772;-122.432;2023-04-27T11:58:39;100805.54;;;18.52;27.36
64614;BME280;51025;37.772;-122.432;2023-04-27T12:01:07;100805.15;;;18.78;26.81
64614;BME280;51025;37.772;-122.432;2023-04-27T12:03:36;100805.49;;;18.82;27.33
64614;BME280;51025;37.772;-122.432;2023-04-27T12:06:04;100804.00;;;18.84;27.32
64614;BME280;51025;37.772;-122.432;2023-04-27T12:08:32;100801.71;;;18.68;26.78
64614;BME280;51025;37.772;-122.432;2023-04-27T12:11:00;100802.35;;;18.55;27.22
64614;BME280;51025;37.772;-122.432;2023-04-27T12:13:28;100806.18;;;18.02;27.29
64614;BME280;51025;37.772;-122.432;2023-04-27T12:15:56;100804.92;;;17.91;27.37
64614;BME280;51025;37.772;-122.432;2023-04-27T12:18:24;100802.92;;;18.42;27.34
64614;BME280;51025;37.772;-122.432;2023-04-27T12:20:52;100800.85;;;18.25;27.03
64614;BME280;51025;37.772;-122.432;2023-04-27T12:23:20;100800.04;;;17.95;27.48
64614;BME280;51025;37.772;-122.432;2023-04-27T12:25:48;100802.04;;;18.25;27.47
64614;BME280;51025;37.772;-122.432;2023-04-27T12:28:16;100802.98;;;19.19;26.83
64614;BME280;51025;37.772;-122.432;2023-04-27T12:30:44;100802.91;;;17.79;27.35